TimeCDT,TemperatureF,Dew PointF,Humidity,Sea Level PressureIn,VisibilityMPH,Wind Direction,Wind SpeedMPH,Gust SpeedMPH,PrecipitationIn,Events,Conditions,WindDirDegrees,DateUTC
12:15 AM,71.6,60.8,69,30.14,10.0,East,6.9,-,N/A,,Clear,100,2013-09-06 05:15:00
12:35 AM,69.8,60.8,73,30.14,10.0,East,4.6,-,N/A,,Clear,90,2013-09-06 05:35:00
12:55 AM,69.8,60.8,73,30.14,10.0,East,5.8,-,N/A,,Clear,100,2013-09-06 05:55:00
1:15 AM,71.6,60.8,69,30.14,10.0,East,6.9,-,N/A,,Clear,100,2013-09-06 06:15:00
1:35 AM,69.8,60.8,73,30.14,10.0,East,5.8,-,N/A,,Clear,100,2013-09-06 06:35:00
1:55 AM,69.8,60.8,73,30.13,10.0,ESE,8.1,-,N/A,,Clear,110,2013-09-06 06:55:00
2:15 AM,69.8,60.8,73,30.13,10.0,ESE,8.1,-,N/A,,Clear,120,2013-09-06 07:15:00
2:35 AM,69.8,60.8,73,30.13,10.0,ESE,8.1,-,N/A,,Clear,120,2013-09-06 07:35:00
2:55 AM,69.8,60.8,73,30.13,10.0,ESE,8.1,-,N/A,,Clear,110,2013-09-06 07:55:00
3:15 AM,69.8,60.8,73,30.13,10.0,ESE,6.9,-,N/A,,Clear,120,2013-09-06 08:15:00
3:35 AM,68.0,60.8,78,30.13,10.0,East,4.6,-,N/A,,Clear,100,2013-09-06 08:35:00
3:55 AM,64.4,60.8,88,30.13,10.0,Calm,Calm,-,N/A,,Clear,0,2013-09-06 08:55:00
4:15 AM,64.4,59.0,83,30.12,10.0,ESE,4.6,-,N/A,,Clear,110,2013-09-06 09:15:00
4:35 AM,66.2,59.0,78,30.12,10.0,ESE,5.8,-,N/A,,Clear,110,2013-09-06 09:35:00
4:55 AM,64.4,59.0,83,30.12,10.0,East,3.5,-,N/A,,Clear,100,2013-09-06 09:55:00
5:15 AM,62.6,59.0,88,30.12,10.0,Calm,Calm,-,N/A,,Clear,0,2013-09-06 10:15:00
5:35 AM,62.6,59.0,88,30.13,10.0,Calm,Calm,-,N/A,,Clear,0,2013-09-06 10:35:00
5:55 AM,62.6,59.0,88,30.13,10.0,Calm,Calm,-,N/A,,Clear,0,2013-09-06 10:55:00
6:15 AM,60.8,59.0,94,30.13,10.0,Calm,Calm,-,N/A,,Clear,0,2013-09-06 11:15:00
6:35 AM,64.4,59.0,83,30.13,10.0,Calm,Calm,-,N/A,,Clear,0,2013-09-06 11:35:00
6:55 AM,62.6,59.0,88,30.14,10.0,Calm,Calm,-,N/A,,Clear,0,2013-09-06 11:55:00
7:15 AM,60.8,59.0,94,30.15,10.0,Calm,Calm,-,N/A,,Clear,0,2013-09-06 12:15:00
7:35 AM,62.6,59.0,88,30.15,10.0,Calm,Calm,-,N/A,,Clear,0,2013-09-06 12:35:00
7:55 AM,64.4,60.8,88,30.15,10.0,Calm,Calm,-,N/A,,Clear,0,2013-09-06 12:55:00
8:15 AM,68.0,62.6,83,30.15,10.0,Calm,Calm,-,N/A,,Clear,0,2013-09-06 13:15:00
8:35 AM,71.6,60.8,69,30.15,10.0,ESE,4.6,-,N/A,,Clear,120,2013-09-06 13:35:00
8:55 AM,73.4,62.6,69,30.16,10.0,SSE,3.5,-,N/A,,Clear,150,2013-09-06 13:55:00
9:15 AM,73.4,62.6,69,30.16,10.0,SSE,4.6,-,N/A,,Clear,160,2013-09-06 14:15:00
9:35 AM,77.0,62.6,61,30.16,10.0,SSE,5.8,-,N/A,,Clear,150,2013-09-06 14:35:00
9:55 AM,77.0,62.6,61,30.16,10.0,South,8.1,-,N/A,,Clear,170,2013-09-06 14:55:00
10:15 AM,78.8,62.6,57,30.16,10.0,SSE,8.1,-,N/A,,Clear,160,2013-09-06 15:15:00
10:35 AM,80.6,62.6,54,30.16,10.0,SSE,6.9,-,N/A,,Clear,160,2013-09-06 15:35:00
10:55 AM,80.6,60.8,51,30.16,10.0,South,6.9,-,N/A,,Clear,180,2013-09-06 15:55:00
11:15 AM,82.4,62.6,51,30.16,10.0,South,9.2,-,N/A,,Clear,180,2013-09-06 16:15:00
11:35 AM,84.2,62.6,48,30.16,10.0,South,6.9,-,N/A,,Clear,190,2013-09-06 16:35:00
11:55 AM,84.2,62.6,48,30.16,10.0,SSW,8.1,-,N/A,,Clear,200,2013-09-06 16:55:00
12:15 PM,86.0,62.6,45,30.15,10.0,South,5.8,-,N/A,,Clear,190,2013-09-06 17:15:00
12:35 PM,86.0,60.8,43,30.14,10.0,South,6.9,-,N/A,,Clear,180,2013-09-06 17:35:00
12:55 PM,87.8,60.8,40,30.13,10.0,SSW,4.6,-,N/A,,Scattered Clouds,200,2013-09-06 17:55:00
1:15 PM,87.8,62.6,43,30.13,10.0,SSW,5.8,-,N/A,,Clear,200,2013-09-06 18:15:00
1:35 PM,89.6,60.8,38,30.12,10.0,South,4.6,-,N/A,,Clear,180,2013-09-06 18:35:00
1:55 PM,89.6,60.8,38,30.11,10.0,ESE,4.6,-,N/A,,Clear,120,2013-09-06 18:55:00
2:15 PM,89.6,60.8,38,30.11,10.0,SSE,5.8,-,N/A,,Clear,160,2013-09-06 19:15:00
2:35 PM,89.6,60.8,38,30.10,10.0,SE,6.9,-,N/A,,Clear,140,2013-09-06 19:35:00
2:55 PM,91.4,60.8,36,30.09,10.0,SSE,4.6,-,N/A,,Clear,160,2013-09-06 19:55:00
3:15 PM,91.4,60.8,36,30.08,10.0,SSE,6.9,-,N/A,,Clear,150,2013-09-06 20:15:00
3:35 PM,89.6,60.8,38,30.08,10.0,South,6.9,-,N/A,,Clear,170,2013-09-06 20:35:00
3:55 PM,91.4,60.8,36,30.07,10.0,Calm,Calm,-,N/A,,Clear,0,2013-09-06 20:55:00
4:15 PM,91.4,60.8,36,30.06,10.0,SSE,5.8,-,N/A,,Clear,150,2013-09-06 21:15:00
4:35 PM,91.4,60.8,36,30.06,10.0,SSE,5.8,-,N/A,,Clear,150,2013-09-06 21:35:00
4:55 PM,91.4,60.8,36,30.05,10.0,South,6.9,-,N/A,,Clear,180,2013-09-06 21:55:00
5:15 PM,89.6,60.8,38,30.05,10.0,Calm,Calm,-,N/A,,Clear,0,2013-09-06 22:15:00
5:35 PM,89.6,60.8,38,30.04,10.0,SSE,4.6,-,N/A,,Clear,150,2013-09-06 22:35:00
5:55 PM,89.6,60.8,38,30.04,10.0,SSE,3.5,-,N/A,,Clear,160,2013-09-06 22:55:00
6:15 PM,89.6,60.8,38,30.04,10.0,Calm,Calm,-,N/A,,Clear,0,2013-09-06 23:15:00
6:35 PM,89.6,62.6,40,30.03,10.0,SE,5.8,-,N/A,,Clear,130,2013-09-06 23:35:00
6:55 PM,87.8,64.4,46,30.03,10.0,ESE,5.8,-,N/A,,Clear,110,2013-09-06 23:55:00
7:15 PM,86.0,64.4,48,30.03,10.0,ESE,4.6,-,N/A,,Clear,120,2013-09-07 00:15:00
7:35 PM,82.4,64.4,54,30.03,10.0,ESE,5.8,-,N/A,,Clear,120,2013-09-07 00:35:00
7:55 PM,80.6,64.4,58,30.03,10.0,ESE,5.8,-,N/A,,Clear,120,2013-09-07 00:55:00
8:15 PM,80.6,64.4,58,30.03,10.0,ESE,5.8,-,N/A,,Clear,120,2013-09-07 01:15:00
8:35 PM,78.8,64.4,61,30.03,10.0,ESE,6.9,-,N/A,,Clear,110,2013-09-07 01:35:00
8:55 PM,78.8,64.4,61,30.03,10.0,ESE,5.8,-,N/A,,Clear,120,2013-09-07 01:55:00
9:15 PM,75.2,64.4,69,30.03,10.0,SE,4.6,-,N/A,,Clear,130,2013-09-07 02:15:00
9:35 PM,73.4,64.4,73,30.03,10.0,SE,5.8,-,N/A,,Clear,140,2013-09-07 02:35:00
9:55 PM,73.4,64.4,73,30.03,10.0,SE,5.8,-,N/A,,Clear,130,2013-09-07 02:55:00
10:15 PM,73.4,66.2,78,30.03,10.0,SE,6.9,-,N/A,,Clear,140,2013-09-07 03:15:00
10:35 PM,73.4,64.4,73,30.03,10.0,SE,4.6,-,N/A,,Clear,130,2013-09-07 03:35:00
10:55 PM,75.2,64.4,69,30.03,10.0,SE,5.8,-,N/A,,Clear,130,2013-09-07 03:55:00
11:15 PM,75.2,64.4,69,30.03,10.0,ESE,5.8,-,N/A,,Clear,120,2013-09-07 04:15:00
11:35 PM,73.4,64.4,73,30.03,10.0,ESE,5.8,-,N/A,,Clear,120,2013-09-07 04:35:00
11:55 PM,73.4,64.4,73,30.03,10.0,ESE,6.9,-,N/A,,Clear,120,2013-09-07 04:55:00